sensor_id;sensor_type;location;lat;lon;timestamp;pressure;altitude;pressure_sealevel;temperature;humidity
21960;BME280;11144;43.030;25.108;2023-09-12T00:00:11;99539.47;;;12.82;63.33
21960;BME280;11144;43.030;25.108;2023-09-12T00:01:45;99538.66;;;12.82;63.03
21960;BME280;11144;43.030;25.108;2023-09-12T00:03:19;99530.72;;;12.75;63.26
21960;BME280;11144;43.030;25.108;2023-09-12T00:04:52;99540.28;;;12.83;63.09
21960;BME280;11144;43.030;25.108;2023-09-12T00:06:24;99539.91;;;12.86;63.22
21960;BME280;11144;43.030;25.108;2023-09-12T00:07:58;99530.97;;;12.80;63.33
21960;BME280;11144;43.030;25.108;2023-09-12T00:09:30;99540.47;;;12.81;63.60
21960;BME280;11144;43.030;25.108;2023-09-12T00:11:06;99549.56;;;12.79;63.80
21960;BME280;11144;43.030;25.108;2023-09-12T00:12:42;99539.22;;;12.77;63.59
21960;BME280;11144;43.030;25.108;2023-09-12T00:14:17;99546.50;;;12.75;63.55
21960;BME280;11144;43.030;25.108;2023-09-12T00:15:49;99550.16;;;12.74;63.88
21960;BME280;11144;43.030;25.108;2023-09-12T00:17:23;99535.09;;;12.68;63.82
21960;BME280;11144;43.030;25.108;2023-09-12T00:18:55;99542.81;;;12.70;63.73
21960;BME280;11144;43.030;25.108;2023-09-12T00:20:28;99540.97;;;12.70;63.59
21960;BME280;11144;43.030;25.108;2023-09-12T00:22:01;99541.19;;;12.69;64.03
21960;BME280;11144;43.030;25.108;2023-09-12T00:23:35;99535.66;;;12.64;63.79
21960;BME280;11144;43.030;25.108;2023-09-12T00:25:09;99553.72;;;12.67;64.24
21960;BME280;11144;43.030;25.108;2023-09-12T00:26:41;99535.03;;;12.62;64.50
21960;BME280;11144;43.030;25.108;2023-09-12T00:28:14;99553.22;;;12.56;64.48
21960;BME280;11144;43.030;25.108;2023-09-12T00:29:48;99538.78;;;12.52;64.21
21960;BME280;11144;43.030;25.108;2023-09-12T00:31:22;99542.94;;;12.40;64.49
21960;BME280;11144;43.030;25.108;2023-09-12T00:32:54;99542.56;;;12.43;64.69
21960;BME280;11144;43.030;25.108;2023-09-12T00:34:27;99540.31;;;12.40;64.41
21960;BME280;11144;43.030;25.108;2023-09-12T00:36:00;99551.19;;;12.37;64.89
21960;BME280;11144;43.030;25.108;2023-09-12T00:37:34;99534.72;;;12.29;64.66
21960;BME280;11144;43.030;25.108;2023-09-12T00:39:06;99548.97;;;12.34;64.86
21960;BME280;11144;43.030;25.108;2023-09-12T00:40:39;99547.94;;;12.35;65.06
21960;BME280;11144;43.030;25.108;2023-09-12T00:42:11;99552.16;;;12.30;64.81
21960;BME280;11144;43.030;25.108;2023-09-12T00:43:45;99550.00;;;12.19;64.56
21960;BME280;11144;43.030;25.108;2023-09-12T00:45:19;99551.91;;;12.10;64.89
21960;BME280;11144;43.030;25.108;2023-09-12T00:46:52;99547.41;;;12.04;65.23
21960;BME280;11144;43.030;25.108;2023-09-12T00:48:26;99550.78;;;11.98;65.32
21960;BME280;11144;43.030;25.108;2023-09-12T00:49:59;99542.00;;;11.91;65.51
21960;BME280;11144;43.030;25.108;2023-09-12T00:51:34;99549.50;;;11.94;65.21
21960;BME280;11144;43.030;25.108;2023-09-12T00:53:08;99554.78;;;11.94;65.29
21960;BME280;11144;43.030;25.108;2023-09-12T00:54:43;99555.03;;;11.99;64.97
21960;BME280;11144;43.030;25.108;2023-09-12T00:56:16;99557.66;;;11.99;65.12
21960;BME280;11144;43.030;25.108;2023-09-12T00:57:49;99551.59;;;11.99;65.07
21960;BME280;11144;43.030;25.108;2023-09-12T00:59:23;99549.94;;;11.98;65.04
21960;BME280;11144;43.030;25.108;2023-09-12T01:00:58;99555.03;;;11.99;65.12
21960;BME280;11144;43.030;25.108;2023-09-12T01:02:30;99546.50;;;11.97;65.20
21960;BME280;11144;43.030;25.108;2023-09-12T01:04:04;99544.25;;;11.94;65.25
21960;BME280;11144;43.030;25.108;2023-09-12T01:05:41;99546.88;;;11.94;65.35
21960;BME280;11144;43.030;25.108;2023-09-12T01:07:15;99561.72;;;12.02;65.47
21960;BME280;11144;43.030;25.108;2023-09-12T01:08:49;99564.53;;;12.00;65.34
21960;BME280;11144;43.030;25.108;2023-09-12T01:10:22;99559.00;;;11.95;65.38
21960;BME280;11144;43.030;25.108;2023-09-12T01:11:55;99546.34;;;11.84;65.77
21960;BME280;11144;43.030;25.108;2023-09-12T01:13:29;99555.31;;;11.90;65.05
21960;BME280;11144;43.030;25.108;2023-09-12T01:15:01;99555.88;;;11.85;65.86
21960;BME280;11144;43.030;25.108;2023-09-12T01:16:39;99561.94;;;11.86;65.93
21960;BME280;11144;43.030;25.108;2023-09-12T01:18:12;99560.75;;;11.88;66.11
21960;BME280;11144;43.030;25.108;2023-09-12T01:19:47;99559.13;;;11.87;65.79
21960;BME280;11144;43.030;25.108;2023-09-12T01:21:47;99566.47;;;11.92;67.95
21960;BME280;11144;43.030;25.108;2023-09-12T01:23:36;99559.00;;;11.95;66.86
21960;BME280;11144;43.030;25.108;2023-09-12T01:25:34;99560.66;;;11.96;67.36
21960;BME280;11144;43.030;25.108;2023-09-12T01:27:19;99569.53;;;11.95;66.13
21960;BME280;11144;43.030;25.108;2023-09-12T01:28:55;99548.00;;;11.85;65.37
21960;BME280;11144;43.030;25.108;2023-09-12T01:30:31;99561.13;;;11.85;66.24
21960;BME280;11144;43.030;25.108;2023-09-12T01:32:05;99557.88;;;11.83;65.66
21960;BME280;11144;43.030;25.108;2023-09-12T01:33:39;99560.03;;;11.79;65.55
21960;BME280;11144;43.030;25.108;2023-09-12T01:35:13;99554.69;;;11.73;66.83
21960;BME280;11144;43.030;25.108;2023-09-12T01:36:46;99561.31;;;11.69;66.05
21960;BME280;11144;43.030;25.108;2023-09-12T01:38:20;99562.31;;;11.68;66.80
21960;BME280;11144;43.030;25.108;2023-09-12T01:39:53;99561.81;;;11.64;66.34
21960;BME280;11144;43.030;25.108;2023-09-12T01:41:31;99568.38;;;11.68;66.55
21960;BME280;11144;43.030;25.108;2023-09-12T01:43:06;99566.25;;;11.64;66.32
21960;BME280;11144;43.030;25.108;2023-09-12T01:44:39;99561.47;;;11.53;66.59
21960;BME280;11144;43.030;25.108;2023-09-12T01:46:17;99567.25;;;11.48;66.80
21960;BME280;11144;43.030;25.108;2023-09-12T01:47:54;99568.91;;;11.49;66.63
21960;BME280;11144;43.030;25.108;2023-09-12T01:49:28;99559.03;;;11.51;66.48
21960;BME280;11144;43.030;25.108;2023-09-12T01:51:04;99570.63;;;11.57;66.44
21960;BME280;11144;43.030;25.108;2023-09-12T01:52:37;99564.00;;;11.61;66.29
21960;BME280;11144;43.030;25.108;2023-09-12T01:54:11;99561.00;;;11.64;66.19
21960;BME280;11144;43.030;25.108;2023-09-12T01:55:45;99564.63;;;11.63;66.19
21960;BME280;11144;43.030;25.108;2023-09-12T01:57:18;99561.38;;;11.61;66.27
21960;BME280;11144;43.030;25.108;2023-09-12T01:58:54;99565.56;;;11.70;65.93
21960;BME280;11144;43.030;25.108;2023-09-12T02:00:28;99559.16;;;11.72;66.12
21960;BME280;11144;43.030;25.108;2023-09-12T02:02:02;99566.03;;;11.73;65.93
21960;BME280;11144;43.030;25.108;2023-09-12T02:03:34;99558.31;;;11.72;66.08
21960;BME280;11144;43.030;25.108;2023-09-12T02:05:11;99566.38;;;11.70;66.31
21960;BME280;11144;43.030;25.108;2023-09-12T02:06:45;99562.22;;;11.61;66.14
21960;BME280;11144;43.030;25.108;2023-09-12T02:08:20;99563.72;;;11.56;66.29
21960;BME280;11144;43.030;25.108;2023-09-12T02:09:54;99562.91;;;11.55;66.58
21960;BME280;11144;43.030;25.108;2023-09-12T02:11:26;99567.19;;;11.56;66.44
21960;BME280;11144;43.030;25.108;2023-09-12T02:12:59;99562.75;;;11.57;66.40
21960;BME280;11144;43.030;25.108;2023-09-12T02:14:34;99565.53;;;11.55;66.32
21960;BME280;11144;43.030;25.108;2023-09-12T02:16:07;99565.09;;;11.52;66.33
21960;BME280;11144;43.030;25.108;2023-09-12T02:17:41;99567.09;;;11.50;66.67
21960;BME280;11144;43.030;25.108;2023-09-12T02:19:13;99559.94;;;11.44;66.44
21960;BME280;11144;43.030;25.108;2023-09-12T02:20:46;99564.38;;;11.43;66.73
21960;BME280;11144;43.030;25.108;2023-09-12T02:22:20;99560.94;;;11.43;66.93
21960;BME280;11144;43.030;25.108;2023-09-12T02:23:53;99561.56;;;11.45;66.58
21960;BME280;11144;43.030;25.108;2023-09-12T02:25:26;99556.03;;;11.40;66.63
21960;BME280;11144;43.030;25.108;2023-09-12T02:27:00;99557.88;;;11.39;66.64
21960;BME280;11144;43.030;25.108;2023-09-12T02:28:33;99558.66;;;11.40;66.95
21960;BME280;11144;43.030;25.108;2023-09-12T02:30:08;99551.78;;;11.39;66.71
21960;BME280;11144;43.030;25.108;2023-09-12T02:31:41;99559.47;;;11.40;66.61
21960;BME280;11144;43.030;25.108;2023-09-12T02:33:14;99558.31;;;11.43;66.66
21960;BME280;11144;43.030;25.108;2023-09-12T02:34:47;99559.28;;;11.42;66.91
21960;BME280;11144;43.030;25.108;2023-09-12T02:36:21;99562.38;;;11.45;66.82
21960;BME280;11144;43.030;25.108;2023-09-12T02:37:53;99554.22;;;11.40;66.61
21960;BME280;11144;43.030;25.108;2023-09-12T02:39:26;99561.91;;;11.42;66.87
21960;BME280;11144;43.030;25.108;2023-09-12T02:40:59;99564.72;;;11.40;67.19
21960;BME280;11144;43.030;25.108;2023-09-12T02:42:34;99549.31;;;11.37;66.92
21960;BME280;11144;43.030;25.108;2023-09-12T02:44:06;99560.19;;;11.34;66.65
21960;BME280;11144;43.030;25.108;2023-09-12T02:45:41;99563.28;;;11.38;67.08
21960;BME280;11144;43.030;25.108;2023-09-12T02:47:13;99562.44;;;11.37;66.84
21960;BME280;11144;43.030;25.108;2023-09-12T02:48:47;99560.19;;;11.34;67.30
21960;BME280;11144;43.030;25.108;2023-09-12T02:50:20;99564.00;;;11.32;67.10
21960;BME280;11144;43.030;25.108;2023-09-12T02:51:53;99563.03;;;11.33;67.07
21960;BME280;11144;43.030;25.108;2023-09-12T02:53:26;99540.19;;;11.19;67.03
21960;BME280;11144;43.030;25.108;2023-09-12T02:55:00;99561.91;;;11.27;67.06
21960;BME280;11144;43.030;25.108;2023-09-12T02:56:32;99563.72;;;11.27;67.18
21960;BME280;11144;43.030;25.108;2023-09-12T02:58:05;99563.91;;;11.25;67.45
21960;BME280;11144;43.030;25.108;2023-09-12T02:59:37;99571.13;;;11.23;67.31
21960;BME280;11144;43.030;25.108;2023-09-12T03:01:15;99565.25;;;11.21;68.18
21960;BME280;11144;43.030;25.108;2023-09-12T03:02:48;99567.59;;;11.16;67.50
21960;BME280;11144;43.030;25.108;2023-09-12T03:04:24;99559.09;;;11.14;67.70
21960;BME280;11144;43.030;25.108;2023-09-12T03:05:57;99560.25;;;11.11;67.69
21960;BME280;11144;43.030;25.108;2023-09-12T03:07:31;99557.34;;;11.06;67.58
21960;BME280;11144;43.030;25.108;2023-09-12T03:09:03;99566.41;;;11.04;67.83
21960;BME280;11144;43.030;25.108;2023-09-12T03:10:38;99561.16;;;11.04;67.83
21960;BME280;11144;43.030;25.108;2023-09-12T03:12:10;99567.22;;;11.04;67.70
21960;BME280;11144;43.030;25.108;2023-09-12T03:13:44;99569.69;;;11.06;67.80
21960;BME280;11144;43.030;25.108;2023-09-12T03:15:17;99572.31;;;11.06;67.97
21960;BME280;11144;43.030;25.108;2023-09-12T03:16:52;99570.31;;;11.08;67.97
21960;BME280;11144;43.030;25.108;2023-09-12T03:18:24;99567.69;;;11.08;67.79
21960;BME280;11144;43.030;25.108;2023-09-12T03:19:59;99579.34;;;11.05;68.30
21960;BME280;11144;43.030;25.108;2023-09-12T03:21:32;99570.66;;;11.05;67.92
21960;BME280;11144;43.030;25.108;2023-09-12T03:23:05;99570.88;;;10.95;68.32
21960;BME280;11144;43.030;25.108;2023-09-12T03:24:37;99570.16;;;10.87;68.70
21960;BME280;11144;43.030;25.108;2023-09-12T03:26:11;99566.44;;;10.81;68.74
21960;BME280;11144;43.030;25.108;2023-09-12T03:27:44;99551.47;;;10.67;68.78
21960;BME280;11144;43.030;25.108;2023-09-12T03:29:18;99568.13;;;10.74;68.43
21960;BME280;11144;43.030;25.108;2023-09-12T03:30:50;99575.00;;;10.75;68.89
21960;BME280;11144;43.030;25.108;2023-09-12T03:32:25;99575.66;;;10.77;68.80
21960;BME280;11144;43.030;25.108;2023-09-12T03:33:57;99570.13;;;10.72;69.15
21960;BME280;11144;43.030;25.108;2023-09-12T03:35:32;99569.94;;;10.74;68.66
21960;BME280;11144;43.030;25.108;2023-09-12T03:37:05;99573.03;;;10.77;68.75
21960;BME280;11144;43.030;25.108;2023-09-12T03:38:38;99571.50;;;10.83;68.64
21960;BME280;11144;43.030;25.108;2023-09-12T03:40:11;99574.31;;;10.81;68.77
21960;BME280;11144;43.030;25.108;2023-09-12T03:41:44;99574.94;;;10.83;68.90
21960;BME280;11144;43.030;25.108;2023-09-12T03:43:17;99580.72;;;10.79;69.45
21960;BME280;11144;43.030;25.108;2023-09-12T03:44:51;99576.72;;;10.68;69.46
21960;BME280;11144;43.030;25.108;2023-09-12T03:46:23;99568.09;;;10.60;69.95
21960;BME280;11144;43.030;25.108;2023-09-12T03:47:58;99582.81;;;10.61;69.42
21960;BME280;11144;43.030;25.108;2023-09-12T03:49:30;99585.25;;;10.62;69.58
21960;BME280;11144;43.030;25.108;2023-09-12T03:51:04;99578.59;;;10.60;69.54
21960;BME280;11144;43.030;25.108;2023-09-12T03:52:36;99578.41;;;10.61;69.52
21960;BME280;11144;43.030;25.108;2023-09-12T03:54:09;99582.00;;;10.60;69.16
21960;BME280;11144;43.030;25.108;2023-09-12T03:55:42;99569.91;;;10.59;70.09
21960;BME280;11144;43.030;25.108;2023-09-12T03:57:16;99578.09;;;10.56;69.60
21960;BME280;11144;43.030;25.108;2023-09-12T03:58:48;99577.28;;;10.56;69.49
21960;BME280;11144;43.030;25.108;2023-09-12T04:00:21;99578.91;;;10.57;69.68
21960;BME280;11144;43.030;25.108;2023-09-12T04:01:54;99580.72;;;10.56;69.92
21960;BME280;11144;43.030;25.108;2023-09-12T04:03:29;99583.97;;;10.58;69.48
21960;BME280;11144;43.030;25.108;2023-09-12T04:05:02;99581.03;;;10.61;69.36
21960;BME280;11144;43.030;25.108;2023-09-12T04:06:36;99581.66;;;10.63;69.66
21960;BME280;11144;43.030;25.108;2023-09-12T04:08:08;99588.50;;;10.64;69.53
21960;BME280;11144;43.030;25.108;2023-09-12T04:09:41;99585.75;;;10.66;70.01
21960;BME280;11144;43.030;25.108;2023-09-12T04:11:16;99579.03;;;10.63;69.94
21960;BME280;11144;43.030;25.108;2023-09-12T04:13:02;99580.72;;;10.56;69.35
21960;BME280;11144;43.030;25.108;2023-09-12T04:14:35;99583.69;;;10.53;69.63
21960;BME280;11144;43.030;25.108;2023-09-12T04:16:08;99576.28;;;10.57;70.19
21960;BME280;11144;43.030;25.108;2023-09-12T04:17:41;99580.41;;;10.51;70.08
21960;BME280;11144;43.030;25.108;2023-09-12T04:19:16;99580.72;;;10.56;69.96
21960;BME280;11144;43.030;25.108;2023-09-12T04:20:48;99581.84;;;10.62;70.03
21960;BME280;11144;43.030;25.108;2023-09-12T04:22:21;99582.94;;;10.67;70.01
21960;BME280;11144;43.030;25.108;2023-09-12T04:23:55;99578.63;;;10.74;69.75
21960;BME280;11144;43.030;25.108;2023-09-12T04:25:28;99580.09;;;10.77;70.04
21960;BME280;11144;43.030;25.108;2023-09-12T04:27:01;99586.59;;;10.81;69.85
21960;BME280;11144;43.030;25.108;2023-09-12T04:28:37;99579.19;;;10.84;69.72
21960;BME280;11144;43.030;25.108;2023-09-12T04:30:11;99585.34;;;10.91;69.77
21960;BME280;11144;43.030;25.108;2023-09-12T04:31:44;99574.16;;;10.97;69.81
21960;BME280;11144;43.030;25.108;2023-09-12T04:33:17;99583.97;;;11.03;69.74
21960;BME280;11144;43.030;25.108;2023-09-12T04:34:51;99587.22;;;11.05;69.48
21960;BME280;11144;43.030;25.108;2023-09-12T04:36:24;99588.03;;;11.06;69.44
21960;BME280;11144;43.030;25.108;2023-09-12T04:37:57;99591.28;;;11.08;69.63
21960;BME280;11144;43.030;25.108;2023-09-12T04:39:30;99585.53;;;11.13;69.77
21960;BME280;11144;43.030;25.108;2023-09-12T04:41:03;99587.75;;;11.16;69.60
21960;BME280;11144;43.030;25.108;2023-09-12T04:42:38;99591.66;;;11.20;69.35
21960;BME280;11144;43.030;25.108;2023-09-12T04:44:11;99587.97;;;11.29;69.16
21960;BME280;11144;43.030;25.108;2023-09-12T04:45:45;99576.19;;;11.25;69.22
21960;BME280;11144;43.030;25.108;2023-09-12T04:47:19;99590.53;;;11.37;69.36
21960;BME280;11144;43.030;25.108;2023-09-12T04:48:51;99585.00;;;11.46;69.40
21960;BME280;11144;43.030;25.108;2023-09-12T04:50:26;99584.47;;;11.65;69.59
21960;BME280;11144;43.030;25.108;2023-09-12T04:51:58;99580.56;;;11.91;69.88
21960;BME280;11144;43.030;25.108;2023-09-12T04:53:32;99594.63;;;12.33;70.02
21960;BME280;11144;43.030;25.108;2023-09-12T04:55:08;99582.91;;;12.72;70.03
21960;BME280;11144;43.030;25.108;2023-09-12T04:56:41;99590.59;;;13.15;69.77
21960;BME280;11144;43.030;25.108;2023-09-12T04:58:13;99586.03;;;13.58;69.56
21960;BME280;11144;43.030;25.108;2023-09-12T04:59:47;99599.19;;;13.99;68.55
21960;BME280;11144;43.030;25.108;2023-09-12T05:01:19;99592.66;;;14.29;68.19
21960;BME280;11144;43.030;25.108;2023-09-12T05:02:53;99592.09;;;14.40;67.38
21960;BME280;11144;43.030;25.108;2023-09-12T05:04:25;99599.84;;;14.68;67.36
21960;BME280;11144;43.030;25.108;2023-09-12T05:06:00;99596.41;;;14.81;67.43
21960;BME280;11144;43.030;25.108;2023-09-12T05:07:33;99600.69;;;15.14;67.99
21960;BME280;11144;43.030;25.108;2023-09-12T05:09:06;99602.09;;;15.36;66.48
21960;BME280;11144;43.030;25.108;2023-09-12T05:10:41;99605.19;;;15.46;67.15
21960;BME280;11144;43.030;25.108;2023-09-12T05:12:14;99597.38;;;15.71;64.91
21960;BME280;11144;43.030;25.108;2023-09-12T05:13:46;99598.34;;;15.96;66.05
21960;BME280;11144;43.030;25.108;2023-09-12T05:15:24;99596.00;;;16.26;64.67
21960;BME280;11144;43.030;25.108;2023-09-12T05:16:56;99595.88;;;16.52;63.72
21960;BME280;11144;43.030;25.108;2023-09-12T05:18:29;99597.56;;;16.71;62.73
21960;BME280;11144;43.030;25.108;2023-09-12T05:20:02;99586.34;;;16.76;63.07
21960;BME280;11144;43.030;25.108;2023-09-12T05:21:40;99597.44;;;17.16;62.56
21960;BME280;11144;43.030;25.108;2023-09-12T05:23:13;99591.03;;;17.48;62.76
21960;BME280;11144;43.030;25.108;2023-09-12T06:10:30;99574.13;;;22.83;42.48
21960;BME280;11144;43.030;25.108;2023-09-12T06:12:30;99581.13;;;22.89;42.69
21960;BME280;11144;43.030;25.108;2023-09-12T06:14:17;99576.19;;;22.76;44.10
21960;BME280;11144;43.030;25.108;2023-09-12T06:16:10;99578.38;;;22.84;42.78
21960;BME280;11144;43.030;25.108;2023-09-12T06:17:50;99563.03;;;23.01;43.66
21960;BME280;11144;43.030;25.108;2023-09-12T06:19:36;99578.66;;;23.19;44.17
21960;BME280;11144;43.030;25.108;2023-09-12T06:21:21;99583.59;;;23.32;41.48
21960;BME280;11144;43.030;25.108;2023-09-12T06:23:08;99579.09;;;23.37;43.15
21960;BME280;11144;43.030;25.108;2023-09-12T06:25:01;99571.19;;;23.58;41.39
21960;BME280;11144;43.030;25.108;2023-09-12T06:26:48;99569.97;;;23.75;43.59
21960;BME280;11144;43.030;25.108;2023-09-12T06:28:35;99574.97;;;24.13;40.15
21960;BME280;11144;43.030;25.108;2023-09-12T06:30:21;99579.59;;;24.33;42.45
21960;BME280;11144;43.030;25.108;2023-09-12T06:32:14;99580.44;;;24.64;38.36
21960;BME280;11144;43.030;25.108;2023-09-12T06:34:01;99571.91;;;24.92;40.95
21960;BME280;11144;43.030;25.108;2023-09-12T06:36:01;99581.31;;;25.00;37.59
21960;BME280;11144;43.030;25.108;2023-09-12T06:37:43;99576.72;;;25.05;40.09
21960;BME280;11144;43.030;25.108;2023-09-12T06:39:28;99573.22;;;25.05;39.73
21960;BME280;11144;43.030;25.108;2023-09-12T06:41:21;99563.84;;;25.12;37.43
21960;BME280;11144;43.030;25.108;2023-09-12T06:43:03;99572.16;;;25.21;40.45
21960;BME280;11144;43.030;25.108;2023-09-12T06:44:49;99575.91;;;25.30;40.52
21960;BME280;11144;43.030;25.108;2023-09-12T06:46:34;99573.47;;;25.38;36.76
21960;BME280;11144;43.030;25.108;2023-09-12T06:48:16;99570.78;;;25.53;37.76
21960;BME280;11144;43.030;25.108;2023-09-12T06:50:16;99579.28;;;25.91;36.10
21960;BME280;11144;43.030;25.108;2023-09-12T06:52:19;99570.59;;;26.09;35.16
21960;BME280;11144;43.030;25.108;2023-09-12T06:53:58;99573.19;;;26.34;36.22
21960;BME280;11144;43.030;25.108;2023-09-12T06:55:51;99576.16;;;26.71;36.23
21960;BME280;11144;43.030;25.108;2023-09-12T06:57:36;99576.25;;;26.95;35.17
21960;BME280;11144;43.030;25.108;2023-09-12T06:59:32;99578.44;;;27.22;30.92
21960;BME280;11144;43.030;25.108;2023-09-12T07:01:18;99575.38;;;27.04;34.96
21960;BME280;11144;43.030;25.108;2023-09-12T07:03:11;99572.31;;;27.16;32.49
21960;BME280;11144;43.030;25.108;2023-09-12T07:04:51;99579.94;;;27.38;34.80
21960;BME280;11144;43.030;25.108;2023-09-12T07:06:50;99578.72;;;27.54;33.16
21960;BME280;11144;43.030;25.108;2023-09-12T07:08:31;99576.75;;;27.59;34.72
21960;BME280;11144;43.030;25.108;2023-09-12T07:10:24;99574.88;;;27.60;32.95
21960;BME280;11144;43.030;25.108;2023-09-12T07:12:24;99574.81;;;27.65;32.21
21960;BME280;11144;43.030;25.108;2023-09-12T07:14:04;99570.91;;;27.76;33.83
21960;BME280;11144;43.030;25.108;2023-09-12T07:15:59;99578.72;;;27.77;31.09
21960;BME280;11144;43.030;25.108;2023-09-12T07:17:38;99576.06;;;27.96;33.26
21960;BME280;11144;43.030;25.108;2023-09-12T07:19:38;99579.50;;;28.02;31.30
21960;BME280;11144;43.030;25.108;2023-09-12T07:21:38;99580.78;;;28.09;30.58
21960;BME280;11144;43.030;25.108;2023-09-12T07:23:23;99578.78;;;28.38;33.08
21960;BME280;11144;43.030;25.108;2023-09-12T07:25:17;99577.28;;;28.46;30.30
21960;BME280;11144;43.030;25.108;2023-09-12T07:26:57;99579.50;;;28.25;32.70
21960;BME280;11144;43.030;25.108;2023-09-12T07:28:57;99579.03;;;28.18;30.88
21960;BME280;11144;43.030;25.108;2023-09-12T07:30:39;99571.81;;;27.90;32.33
21960;BME280;11144;43.030;25.108;2023-09-12T07:32:41;99574.44;;;28.00;30.59
21960;BME280;11144;43.030;25.108;2023-09-12T07:34:22;99570.63;;;28.01;32.60
21960;BME280;11144;43.030;25.108;2023-09-12T07:36:15;99567.59;;;28.08;30.58
21960;BME280;11144;43.030;25.108;2023-09-12T07:37:54;99566.59;;;28.22;31.69
21960;BME280;11144;43.030;25.108;2023-09-12T07:39:54;99568.63;;;28.30;30.36
21960;BME280;11144;43.030;25.108;2023-09-12T07:41:34;99565.88;;;28.54;31.74
21960;BME280;11144;43.030;25.108;2023-09-12T07:43:33;99555.56;;;28.75;29.53
21960;BME280;11144;43.030;25.108;2023-09-12T07:45:13;99566.03;;;28.95;30.70
21960;BME280;11144;43.030;25.108;2023-09-12T07:47:07;99552.53;;;28.95;29.54
21960;BME280;11144;43.030;25.108;2023-09-12T07:48:55;99561.72;;;28.80;30.24
21960;BME280;11144;43.030;25.108;2023-09-12T07:50:41;99548.75;;;28.45;29.02
21960;BME280;11144;43.030;25.108;2023-09-12T07:52:28;99554.41;;;28.43;31.43
21960;BME280;11144;43.030;25.108;2023-09-12T07:54:14;99552.31;;;28.40;29.83
21960;BME280;11144;43.030;25.108;2023-09-12T07:55:59;99543.03;;;28.46;29.34
21960;BME280;11144;43.030;25.108;2023-09-12T07:57:44;99545.22;;;28.82;30.23
21960;BME280;11144;43.030;25.108;2023-09-12T07:59:37;99545.84;;;28.92;29.06
21960;BME280;11144;43.030;25.108;2023-09-12T08:01:24;99548.94;;;29.18;30.02
21960;BME280;11144;43.030;25.108;2023-09-12T08:03:17;99543.16;;;29.25;27.67
21960;BME280;11144;43.030;25.108;2023-09-12T08:04:59;99538.94;;;29.32;30.06
21960;BME280;11144;43.030;25.108;2023-09-12T08:06:45;99540.88;;;29.59;29.16
21960;BME280;11144;43.030;25.108;2023-09-12T08:08:44;99535.78;;;29.98;26.99
21960;BME280;11144;43.030;25.108;2023-09-12T08:10:24;99537.03;;;30.14;28.68
21960;BME280;11144;43.030;25.108;2023-09-12T08:12:17;99539.13;;;30.17;27.01
21960;BME280;11144;43.030;25.108;2023-09-12T08:14:03;99532.13;;;30.16;28.80
21960;BME280;11144;43.030;25.108;2023-09-12T08:15:49;99534.91;;;30.25;28.03
21960;BME280;11144;43.030;25.108;2023-09-12T08:17:29;99539.38;;;30.43;28.41
21960;BME280;11144;43.030;25.108;2023-09-12T08:19:15;99531.22;;;30.56;27.96
21960;BME280;11144;43.030;25.108;2023-09-12T08:21:10;99536.63;;;30.79;26.00
21960;BME280;11144;43.030;25.108;2023-09-12T08:22:49;99532.78;;;30.71;27.41
21960;BME280;11144;43.030;25.108;2023-09-12T08:24:42;99526.06;;;29.97;27.83
21960;BME280;11144;43.030;25.108;2023-09-12T08:26:22;99529.19;;;29.91;28.56
21960;BME280;11144;43.030;25.108;2023-09-12T08:28:11;99522.38;;;29.93;28.42
21960;BME280;11144;43.030;25.108;2023-09-12T08:30:04;99522.59;;;30.19;26.46
21960;BME280;11144;43.030;25.108;2023-09-12T08:31:44;99518.47;;;29.85;28.74
21960;BME280;11144;43.030;25.108;2023-09-12T08:33:37;99525.53;;;30.09;27.64
21960;BME280;11144;43.030;25.108;2023-09-12T08:35:23;99520.94;;;30.45;28.33
21960;BME280;11144;43.030;25.108;2023-09-12T08:37:18;99521.69;;;30.81;26.87
21960;BME280;11144;43.030;25.108;2023-09-12T08:39:05;99523.59;;;31.03;27.39
21960;BME280;11144;43.030;25.108;2023-09-12T08:41:05;99519.88;;;31.21;25.74
21960;BME280;11144;43.030;25.108;2023-09-12T08:42:45;99504.22;;;31.49;26.36
21960;BME280;11144;43.030;25.108;2023-09-12T08:44:39;99510.47;;;31.58;25.48
21960;BME280;11144;43.030;25.108;2023-09-12T08:46:25;99511.63;;;31.65;26.11
21960;BME280;11144;43.030;25.108;2023-09-12T08:48:19;99506.53;;;31.81;25.05
21960;BME280;11144;43.030;25.108;2023-09-12T08:50:10;99501.28;;;31.84;25.89
21960;BME280;11144;43.030;25.108;2023-09-12T08:52:04;99503.25;;;32.01;24.30
21960;BME280;11144;43.030;25.108;2023-09-12T08:53:45;99498.78;;;32.31;25.87
21960;BME280;11144;43.030;25.108;2023-09-12T08:55:38;99501.06;;;32.63;23.73
21960;BME280;11144;43.030;25.108;2023-09-12T08:57:17;99498.28;;;32.89;25.63
21960;BME280;11144;43.030;25.108;2023-09-12T08:58:58;99498.41;;;33.09;24.60
21960;BME280;11144;43.030;25.108;2023-09-12T09:00:52;99496.41;;;33.27;23.33
21960;BME280;11144;43.030;25.108;2023-09-12T09:02:33;99490.38;;;33.13;24.64
21960;BME280;11144;43.030;25.108;2023-09-12T09:04:19;99493.81;;;32.84;25.09
21960;BME280;11144;43.030;25.108;2023-09-12T09:06:22;99487.13;;;32.73;22.41
21960;BME280;11144;43.030;25.108;2023-09-12T09:08:03;99487.41;;;32.89;24.75
21960;BME280;11144;43.030;25.108;2023-09-12T09:09:58;99490.22;;;33.18;22.54
21960;BME280;11144;43.030;25.108;2023-09-12T09:11:36;99487.47;;;33.26;22.94
21960;BME280;11144;43.030;25.108;2023-09-12T09:13:36;99494.03;;;33.17;23.39
21960;BME280;11144;43.030;25.108;2023-09-12T09:15:24;99487.84;;;32.99;24.37
21960;BME280;11144;43.030;25.108;2023-09-12T09:17:20;99484.56;;;33.31;22.75
21960;BME280;11144;43.030;25.108;2023-09-12T09:19:13;99487.94;;;33.66;23.72
21960;BME280;11144;43.030;25.108;2023-09-12T09:21:17;99484.56;;;33.90;21.32
21960;BME280;11144;43.030;25.108;2023-09-12T09:22:59;99485.97;;;33.96;23.58